.
WxDataArchive / Data Records for 2015-05-06
2015-05-05 May 2015 2015-05-07

Data Records for Wednesday, 06 May 2015

Time	Temp	Chill	HIndex	Humid	Dewpt	 Wind 	HiWind	WindDir	Rain 	Barom
-----	----	-----	------	-----	-----	------	------	-------	-----	-----
00:00	54.1	54.1	54.1	93	52.1	0	3	90	0.00	30.208 
00:05	53.9	53.9	53.9	93	51.9	0	1	90	0.00	30.208 
00:10	53.8	53.8	53.8	92	51.5	0	2	90	0.00	30.208 
00:15	53.8	53.8	53.8	92	51.5	0	1	90	0.00	30.220 
00:20	53.8	53.8	53.8	92	51.5	0	1	90	0.00	30.220 
00:25	53.8	53.8	53.8	92	51.5	0	1	90	0.00	30.220 
00:30	53.6	53.6	53.6	92	51.3	0	0	---	0.00	30.215 
00:35	53.5	53.5	53.5	92	51.2	0	1	90	0.00	30.215 
00:40	53.3	53.3	53.3	92	51.0	1	3	90	0.00	30.215 
00:45	53.2	53.2	53.2	92	50.9	0	3	90	0.00	30.211 
00:50	53.2	53.2	53.2	92	50.9	0	2	90	0.00	30.211 
00:55	53.1	53.1	53.1	92	50.8	0	1	90	0.00	30.211 
01:00	52.9	52.9	52.9	92	50.6	0	4	90	0.00	30.210 
01:05	52.9	52.9	52.9	92	50.6	0	2	90	0.00	30.210 
01:10	52.8	52.8	52.8	92	50.5	1	4	90	0.00	30.210 
01:15	52.8	52.8	52.8	92	50.5	1	4	90	0.00	30.207 
01:20	52.8	52.8	52.8	92	50.5	0	2	90	0.00	30.207 
01:25	52.6	52.6	52.6	92	50.3	0	2	90	0.00	30.207 
01:30	52.6	52.6	52.6	92	50.3	1	3	90	0.00	30.206 
01:35	52.6	52.6	52.6	92	50.3	1	3	90	0.00	30.206 
01:40	52.6	52.6	52.6	92	50.3	1	3	90	0.00	30.206 
01:45	52.6	52.6	52.6	92	50.3	1	5	90	0.00	30.204 
01:50	52.6	52.6	52.6	92	50.3	1	4	90	0.00	30.204 
01:55	52.5	52.5	52.5	92	50.2	1	3	90	0.00	30.204 
02:00	52.5	52.5	52.5	92	50.2	1	4	90	0.00	30.199 
02:05	52.5	52.5	52.5	92	50.2	0	2	90	0.00	30.199 
02:10	52.5	52.5	52.5	92	50.2	1	6	90	0.00	30.199 
02:15	52.5	52.5	52.5	92	50.2	1	5	90	0.00	30.195 
02:20	52.5	52.5	52.5	92	50.2	1	4	90	0.00	30.195 
02:25	52.3	52.3	52.3	93	50.3	1	4	90	0.00	30.195 
02:30	52.3	52.3	52.3	93	50.3	1	4	68	0.00	30.192 
02:35	52.3	52.3	52.3	93	50.3	1	4	90	0.00	30.192 
02:40	52.3	52.3	52.3	93	50.3	0	3	90	0.00	30.192 
02:45	52.5	52.5	52.5	93	50.5	1	3	90	0.00	30.188 
02:50	52.5	52.5	52.5	93	50.5	0	3	90	0.00	30.188 
02:55	52.5	52.5	52.5	93	50.5	1	4	90	0.00	30.188 
03:00	52.5	52.5	52.5	93	50.5	1	3	90	0.00	30.185 
03:05	52.5	52.5	52.5	93	50.5	1	3	90	0.00	30.185 
03:10	52.5	52.5	52.5	93	50.5	2	4	90	0.00	30.185 
03:15	52.5	52.5	52.5	94	50.8	1	5	90	0.00	30.180 
03:20	52.5	52.5	52.5	94	50.8	1	3	90	0.00	30.180 
03:25	52.5	52.5	52.5	94	50.8	0	2	90	0.00	30.180 
03:30	52.5	52.5	52.5	94	50.8	1	4	90	0.00	30.179 
03:35	52.5	52.5	52.5	94	50.8	1	4	90	0.00	30.179 
03:40	52.5	52.5	52.5	94	50.8	1	4	90	0.00	30.179 
03:45	52.5	52.5	52.5	94	50.8	1	4	90	0.00	30.175 
03:50	52.5	52.5	52.5	94	50.8	2	4	90	0.00	30.175 
03:55	52.5	52.5	52.5	94	50.8	2	4	112	0.00	30.175 
04:00	52.5	52.5	52.5	95	51.1	1	4	68	0.00	30.174 
04:05	52.3	52.3	52.3	95	50.9	1	4	90	0.00	30.174 
04:10	52.5	52.5	52.5	95	51.1	1	4	90	0.00	30.174 
04:15	52.3	52.3	52.3	95	50.9	2	5	90	0.00	30.180 
04:20	52.3	52.3	52.3	95	50.9	1	3	90	0.00	30.180 
04:25	52.3	52.3	52.3	95	50.9	1	4	90	0.00	30.180 
04:30	52.3	52.3	52.3	95	50.9	1	3	90	0.00	30.180 
04:35	52.3	52.3	52.3	95	50.9	1	3	90	0.00	30.180 
04:40	52.3	52.3	52.3	95	50.9	1	4	90	0.00	30.180 
04:45	52.3	52.3	52.3	95	50.9	1	5	90	0.00	30.179 
04:50	52.5	52.5	52.5	96	51.4	0	3	90	0.00	30.179 
04:55	52.3	52.3	52.3	95	50.9	1	6	90	0.00	30.179 
05:00	52.3	52.3	52.3	96	51.2	1	4	90	0.00	30.179 
05:05	52.3	52.3	52.3	96	51.2	1	3	90	0.00	30.179 
05:10	52.3	52.3	52.3	96	51.2	1	4	90	0.00	30.179 
05:15	52.3	52.3	52.3	96	51.2	1	3	90	0.00	30.181 
05:20	52.3	52.3	52.3	96	51.2	1	3	90	0.00	30.181 
05:25	52.3	52.3	52.3	96	51.2	1	3	90	0.00	30.181 
05:30	52.2	52.2	52.2	96	51.1	1	3	90	0.00	30.179 
05:35	52.3	52.3	52.3	96	51.2	0	2	90	0.00	30.179 
05:40	52.3	52.3	52.3	96	51.2	0	2	90	0.00	30.179 
05:45	52.3	52.3	52.3	96	51.2	1	3	90	0.00	30.180 
05:50	52.3	52.3	52.3	96	51.2	0	2	90	0.00	30.180 
05:55	52.3	52.3	52.3	96	51.2	0	2	90	0.00	30.180 
06:00	52.3	52.3	52.3	96	51.2	0	2	90	0.00	30.179 
06:05	52.3	52.3	52.3	96	51.2	0	3	90	0.00	30.179 
06:10	52.3	52.3	52.3	96	51.2	0	2	90	0.00	30.179 
06:15	52.3	52.3	52.3	96	51.2	0	3	90	0.00	30.184 
06:20	52.3	52.3	52.3	96	51.2	0	3	90	0.00	30.184 
06:25	52.3	52.3	52.3	96	51.2	1	3	90	0.00	30.184 
06:30	52.3	52.3	52.3	96	51.2	1	4	90	0.00	30.186 
06:35	52.3	52.3	52.3	96	51.2	1	3	90	0.00	30.186 
06:40	52.3	52.3	52.3	96	51.2	1	5	90	0.00	30.186 
06:45	52.3	52.3	52.3	96	51.2	0	2	90	0.00	30.186 
06:50	52.3	52.3	52.3	96	51.2	0	1	90	0.00	30.186 
06:55	52.3	52.3	52.3	96	51.2	1	3	90	0.00	30.186 
07:00	52.3	52.3	52.3	96	51.2	0	2	90	0.00	30.186 
07:05	52.3	52.3	52.3	96	51.2	1	5	90	0.00	30.186 
07:10	52.2	52.2	52.2	96	51.1	0	3	90	0.00	30.186 
07:15	52.3	52.3	52.3	96	51.2	0	2	90	0.00	30.195 
07:20	52.3	52.3	52.3	96	51.2	0	3	90	0.00	30.195 
07:25	52.5	52.5	52.5	96	51.4	0	1	90	0.00	30.195 
07:30	52.5	52.5	52.5	96	51.4	1	4	90	0.00	30.200 
07:35	52.5	52.5	52.5	96	51.4	0	2	90	0.00	30.200 
07:40	52.6	52.6	52.6	96	51.5	1	4	90	0.00	30.200 
07:45	52.6	52.6	52.6	96	51.5	0	2	90	0.00	30.200 
07:50	52.6	52.6	52.6	96	51.5	0	2	90	0.00	30.200 
07:55	52.8	52.8	52.8	97	52.0	0	3	90	0.00	30.200 
08:00	52.8	52.8	52.8	97	52.0	0	2	90	0.00	30.201 
08:05	52.8	52.8	52.8	97	52.0	1	4	112	0.00	30.201 
08:10	52.8	52.8	52.8	97	52.0	1	4	112	0.00	30.201 
08:15	52.9	52.9	52.9	97	52.1	1	3	112	0.00	30.206 
08:20	52.9	52.9	52.9	97	52.1	0	3	112	0.00	30.206 
08:25	53.1	53.1	53.1	97	52.3	0	1	112	0.00	30.206 
08:30	53.1	53.1	53.1	97	52.3	1	4	90	0.00	30.210 
08:35	53.2	53.2	53.2	97	52.4	0	2	90	0.00	30.210 
08:40	53.2	53.2	53.2	97	52.4	1	3	90	0.00	30.210 
08:45	53.2	53.2	53.2	97	52.4	1	3	90	0.00	30.211 
08:50	53.2	53.2	53.2	97	52.4	0	3	90	0.00	30.211 
08:55	53.3	53.3	53.3	97	52.5	1	2	90	0.00	30.211 
09:00	53.5	53.5	53.5	97	52.7	0	2	90	0.00	30.209 
09:05	53.5	53.5	53.5	97	52.7	1	3	90	0.00	30.209 
09:10	53.6	53.6	53.6	97	52.8	1	3	90	0.00	30.209 
09:15	53.8	53.8	53.8	97	53.0	0	3	90	0.00	30.213 
09:20	53.8	53.8	53.8	97	53.0	1	3	90	0.00	30.213 
09:25	53.8	53.8	53.8	97	53.0	1	3	90	0.00	30.213 
09:30	53.9	53.9	53.9	97	53.1	0	2	90	0.00	30.215 
09:35	54.1	54.1	54.1	97	53.3	0	1	90	0.00	30.215 
09:40	54.1	54.1	54.1	97	53.3	1	3	90	0.00	30.215 
09:45	54.2	54.2	54.2	97	53.4	0	3	90	0.00	30.216 
09:50	54.5	54.5	54.5	97	53.7	0	3	90	0.00	30.216 
09:55	54.4	54.4	54.4	97	53.6	1	3	90	0.00	30.216 
10:00	54.4	54.4	54.4	97	53.6	0	4	90	0.00	30.217 
10:05	54.4	54.4	54.4	97	53.6	0	3	90	0.00	30.217 
10:10	54.4	54.4	54.4	97	53.6	1	2	90	0.00	30.217 
10:15	54.5	54.5	54.5	97	53.7	1	4	90	0.00	30.215 
10:20	54.7	54.7	54.7	97	53.9	1	3	90	0.00	30.215 
10:25	55.0	55.0	55.0	97	54.2	0	2	90	0.00	30.215 
10:30	55.1	55.1	55.1	97	54.3	1	3	90	0.00	30.217 
10:35	55.3	55.3	55.3	97	54.5	1	3	90	0.00	30.217 
10:40	55.4	55.4	55.4	97	54.6	0	1	90	0.00	30.217 
10:45	55.4	55.4	55.4	97	54.6	0	3	90	0.00	30.216 
10:50	55.7	55.7	55.7	96	54.6	0	1	90	0.00	30.216 
10:55	55.7	55.7	55.7	96	54.6	0	2	90	0.00	30.216 
11:00	56.0	56.0	56.0	96	54.9	0	2	90	0.00	30.214 
11:05	56.2	56.2	56.2	96	55.1	0	2	90	0.00	30.214 
11:10	56.3	56.3	56.3	96	55.2	0	3	90	0.00	30.214 
11:15	56.6	56.6	56.6	96	55.5	0	2	90	0.00	30.215 
11:20	56.7	56.7	56.7	96	55.6	1	3	90	0.00	30.215 
11:25	56.9	56.9	56.9	96	55.8	1	3	90	0.00	30.215 
11:30	57.6	57.6	57.6	96	56.5	0	2	90	0.00	30.209 
11:35	58.1	58.1	58.1	95	56.7	1	3	90	0.00	30.209 
11:40	58.4	58.4	58.4	94	56.7	1	4	90	0.00	30.209 
11:45	58.9	58.9	58.9	93	56.9	0	2	90	0.00	30.211 
11:50	59.5	59.5	59.5	93	57.5	0	1	90	0.00	30.211 
11:55	60.4	60.4	60.4	92	58.1	0	1	90	0.00	30.211 
12:00	60.7	60.7	60.7	90	57.7	0	2	90	0.00	30.210 
12:05	60.9	60.9	60.9	89	57.6	0	4	90	0.00	30.210 
12:10	61.3	61.3	61.3	88	57.7	0	4	90	0.00	30.210 
12:15	61.6	61.6	61.6	88	58.0	1	3	90	0.00	30.210 
12:20	62.3	62.3	62.3	87	58.4	0	3	90	0.00	30.210 
12:25	62.6	62.6	62.6	86	58.3	0	1	90	0.00	30.210 
12:30	63.1	63.1	63.1	84	58.2	1	4	90	0.00	30.202 
12:35	63.4	63.4	63.4	83	58.1	0	4	90	0.00	30.202 
12:40	63.9	63.9	63.9	82	58.3	1	4	90	0.00	30.202 
12:45	64.5	64.5	64.5	81	58.5	0	3	90	0.00	30.194 
12:50	65.2	65.2	65.2	78	58.2	1	4	90	0.00	30.194 
12:55	65.6	65.6	65.6	78	58.5	0	2	90	0.00	30.194 
13:00	66.1	66.1	66.1	77	58.7	1	4	90	0.00	30.190 
13:05	66.4	66.4	66.4	75	58.2	1	4	90	0.00	30.190 
13:10	66.8	66.8	66.8	75	58.6	1	3	90	0.00	30.190 
13:15	67.3	67.3	67.3	74	58.7	1	4	90	0.00	30.180 
13:20	67.8	67.8	67.8	75	59.6	1	2	90	0.00	30.180 
13:25	67.9	67.9	67.9	73	58.9	2	4	90	0.00	30.180 
13:30	68.3	68.3	68.3	76	60.4	1	3	90	0.00	30.175 
13:35	68.6	68.6	68.6	75	60.3	1	3	90	0.00	30.175 
13:40	69.1	69.1	69.1	75	60.8	0	3	90	0.00	30.175 
13:45	69.4	69.4	69.4	72	60.0	1	4	90	0.00	30.171 
13:50	69.6	69.6	69.6	74	60.9	1	4	90	0.00	30.171 
13:55	70.1	70.1	70.1	75	61.8	0	3	90	0.00	30.171 
14:00	70.4	70.4	70.4	72	60.9	1	4	90	0.00	30.167 
14:05	70.6	70.6	70.6	70	60.3	0	3	90	0.00	30.167 
14:10	70.9	70.9	70.9	71	61.0	1	3	90	0.00	30.167 
14:15	71.6	71.6	71.6	73	62.5	0	1	90	0.00	30.156 
14:20	72.1	72.1	72.1	70	61.8	1	4	90	0.00	30.156 
14:25	72.1	72.1	72.1	70	61.8	1	3	90	0.00	30.156 
14:30	72.5	72.5	72.5	68	61.3	1	4	90	0.00	30.154 
14:35	72.7	72.7	72.7	70	62.3	0	1	90	0.00	30.154 
14:40	72.8	72.8	72.8	68	61.6	1	3	90	0.00	30.154 
14:45	73.5	73.5	73.5	68	62.3	0	1	90	0.00	30.153 
14:50	74.2	74.2	74.2	66	62.1	1	3	90	0.00	30.153 
14:55	74.9	74.9	74.9	65	62.3	0	3	112	0.00	30.153 
15:00	75.4	75.4	77.3	67	63.7	1	4	112	0.00	30.144 
15:05	75.6	75.6	77.6	63	62.1	0	2	112	0.00	30.144 
15:10	76.0	76.0	78.0	62	62.0	1	3	112	0.00	30.144 
15:15	76.0	76.0	77.9	64	62.9	1	5	112	0.00	30.139 
15:20	76.1	76.1	78.0	63	62.6	1	3	112	0.00	30.139 
15:25	76.5	76.5	78.4	61	62.0	1	3	112	0.00	30.139 
15:30	76.7	76.7	78.5	61	62.2	0	3	112	0.00	30.135 
15:35	76.8	76.8	78.6	61	62.3	0	2	112	0.00	30.135 
15:40	77.2	77.2	79.0	61	62.7	0	2	112	0.00	30.135 
15:45	77.4	77.4	79.1	61	62.9	1	4	90	0.00	30.132 
15:50	77.4	77.4	79.1	59	61.9	1	4	90	0.00	30.132 
15:55	77.2	77.2	79.0	61	62.7	1	3	112	0.00	30.132 
16:00	77.4	77.4	79.2	62	63.3	0	2	112	0.00	30.128 
16:05	77.6	77.6	79.2	58	61.6	0	1	112	0.00	30.128 
16:10	77.9	77.9	79.6	61	63.3	0	2	112	0.00	30.128 
16:15	78.1	78.1	79.7	59	62.6	1	4	112	0.00	30.120 
16:20	78.1	78.1	79.7	58	62.1	1	2	112	0.00	30.120 
16:25	78.1	78.1	79.6	57	61.6	1	4	112	0.00	30.120 
16:30	78.3	78.3	79.9	59	62.8	0	3	112	0.00	30.115 
16:35	78.3	78.3	79.8	57	61.8	1	5	112	0.00	30.115 
16:40	78.3	78.3	80.0	61	63.7	1	3	112	0.00	30.115 
16:45	78.3	78.3	79.9	58	62.3	1	4	112	0.00	30.108 
16:50	78.5	78.5	80.0	58	62.5	1	2	112	0.00	30.108 
16:55	78.3	78.3	79.9	58	62.3	1	4	112	0.00	30.108 
17:00	78.3	78.3	79.9	59	62.8	1	3	112	0.00	30.105 
17:05	78.5	78.5	80.0	57	62.0	1	4	112	0.00	30.105 
17:10	78.5	78.5	80.0	57	62.0	1	4	112	0.00	30.105 
17:15	78.5	78.5	80.0	57	62.0	1	4	90	0.00	30.104 
17:20	78.5	78.5	80.0	58	62.5	1	4	90	0.00	30.104 
17:25	78.5	78.5	80.1	59	63.0	1	3	90	0.00	30.104 
17:30	78.3	78.3	79.9	58	62.3	1	4	90	0.00	30.100 
17:35	78.5	78.5	80.0	57	62.0	1	4	90	0.00	30.100 
17:40	78.3	78.3	79.9	58	62.3	1	4	90	0.00	30.100 
17:45	78.3	78.3	79.9	59	62.8	2	5	90	0.00	30.101 
17:50	77.9	77.9	79.5	59	62.4	1	5	22	0.00	30.101 
17:55	77.9	77.9	79.6	60	62.9	0	2	22	0.00	30.101 
18:00	77.7	77.7	79.4	60	62.7	1	4	112	0.00	30.092 
18:05	77.6	77.6	79.3	59	62.1	1	5	112	0.00	30.092 
18:10	77.2	77.2	78.9	60	62.2	2	5	90	0.00	30.092 
18:15	77.0	77.0	78.8	59	61.6	2	6	90	0.00	30.091 
18:20	76.8	76.8	78.6	60	61.8	1	5	68	0.00	30.091 
18:25	76.5	76.5	78.4	60	61.6	2	6	90	0.00	30.091 
18:30	76.3	76.3	78.2	60	61.4	2	6	90	0.00	30.090 
18:35	76.1	76.1	78.1	61	61.7	2	6	90	0.00	30.090 
18:40	76.0	76.0	78.0	61	61.6	2	5	90	0.00	30.090 
18:45	76.0	76.0	78.0	60	61.1	1	6	112	0.00	30.089 
18:50	75.8	75.8	77.8	61	61.4	2	6	112	0.00	30.089 
18:55	75.6	75.6	77.7	62	61.6	1	9	112	0.00	30.089 
19:00	75.4	75.4	77.5	62	61.5	2	5	112	0.00	30.089 
19:05	75.3	75.3	77.5	62	61.4	2	7	90	0.00	30.089 
19:10	75.1	75.1	77.3	63	61.6	1	5	112	0.00	30.089 
19:15	74.9	74.9	74.9	63	61.4	1	6	112	0.00	30.087 
19:20	74.9	74.9	74.9	63	61.4	2	5	112	0.00	30.087 
19:25	74.7	74.7	74.7	63	61.2	1	4	112	0.00	30.087 
19:30	74.6	74.6	74.6	63	61.2	1	4	112	0.00	30.083 
19:35	74.4	74.4	74.4	64	61.4	0	3	112	0.00	30.083 
19:40	74.2	74.2	74.2	64	61.2	1	4	112	0.00	30.083 
19:45	74.0	74.0	74.0	65	61.5	1	3	112	0.00	30.082 
19:50	73.9	73.9	73.9	65	61.4	0	2	112	0.00	30.082 
19:55	73.5	73.5	73.5	66	61.4	1	3	90	0.00	30.082 
20:00	73.3	73.3	73.3	66	61.2	1	2	90	0.00	30.081 
20:05	73.2	73.2	73.2	67	61.6	0	2	90	0.00	30.081 
20:10	73.0	73.0	73.0	68	61.8	0	2	90	0.00	30.081 
20:15	72.7	72.7	72.7	69	61.9	0	2	90	0.00	30.085 
20:20	72.3	72.3	72.3	69	61.5	0	2	90	0.00	30.085 
20:25	72.1	72.1	72.1	69	61.4	1	3	90	0.00	30.085 
20:30	71.8	71.8	71.8	70	61.5	0	2	90	0.00	30.086 
20:35	71.5	71.5	71.5	70	61.2	0	2	90	0.00	30.086 
20:40	71.1	71.1	71.1	71	61.2	0	2	90	0.00	30.086 
20:45	70.9	70.9	70.9	71	61.0	0	1	90	0.00	30.089 
20:50	70.8	70.8	70.8	72	61.3	0	2	90	0.00	30.089 
20:55	70.4	70.4	70.4	73	61.3	0	2	90	0.00	30.089 
21:00	70.1	70.1	70.1	73	61.0	0	2	90	0.00	30.089 
21:05	69.9	69.9	69.9	74	61.2	0	1	90	0.00	30.089 
21:10	69.6	69.6	69.6	74	60.9	0	1	90	0.00	30.089 
21:15	69.4	69.4	69.4	74	60.7	0	1	90	0.00	30.094 
21:20	69.1	69.1	69.1	75	60.8	0	2	90	0.00	30.094 
21:25	68.9	68.9	68.9	76	61.0	0	1	90	0.00	30.094 
21:30	68.8	68.8	68.8	76	60.9	0	1	90	0.00	30.096 
21:35	68.4	68.4	68.4	77	60.9	0	2	90	0.00	30.096 
21:40	68.3	68.3	68.3	77	60.8	0	1	90	0.00	30.096 
21:45	68.1	68.1	68.1	78	61.0	0	1	90	0.00	30.101 
21:50	67.9	67.9	67.9	78	60.8	0	1	90	0.00	30.101 
21:55	67.8	67.8	67.8	78	60.7	0	2	90	0.00	30.101 
22:00	67.6	67.6	67.6	79	60.8	0	2	90	0.00	30.107 
22:05	67.3	67.3	67.3	79	60.6	0	1	90	0.00	30.107 
22:10	67.1	67.1	67.1	80	60.7	1	3	90	0.00	30.107 
22:15	67.1	67.1	67.1	80	60.7	1	3	90	0.00	30.109 
22:20	66.9	66.9	66.9	79	60.2	1	4	90	0.00	30.109 
22:25	66.8	66.8	66.8	79	60.1	2	6	68	0.00	30.109 
22:30	66.6	66.6	66.6	79	59.9	2	3	68	0.00	30.112 
22:35	66.4	66.4	66.4	80	60.0	2	6	68	0.00	30.112 
22:40	66.1	66.1	66.1	80	59.7	2	6	68	0.00	30.112 
22:45	66.0	66.0	66.0	80	59.6	2	5	90	0.00	30.114 
22:50	65.8	65.8	65.8	81	59.8	2	4	90	0.00	30.114 
22:55	65.5	65.5	65.5	81	59.5	2	5	68	0.00	30.114 
23:00	65.3	65.3	65.3	81	59.3	1	4	90	0.00	30.117 
23:05	65.2	65.2	65.2	81	59.2	2	4	68	0.00	30.117 
23:10	64.8	64.8	64.8	81	58.8	1	4	68	0.00	30.117 
23:15	64.7	64.7	64.7	82	59.1	1	5	68	0.00	30.113 
23:20	64.5	64.5	64.5	82	58.9	1	3	90	0.00	30.113 
23:25	64.2	64.2	64.2	82	58.6	1	2	90	0.00	30.113 
23:30	64.0	64.0	64.0	83	58.7	1	3	90	0.00	30.114 
23:35	63.9	63.9	63.9	83	58.6	1	4	68	0.00	30.114 
23:40	63.7	63.7	63.7	83	58.4	1	3	68	0.00	30.114 
23:45	63.5	63.5	63.5	83	58.2	1	3	68	0.00	30.117 
23:50	63.4	63.4	63.4	84	58.5	0	2	68	0.00	30.117 
23:55	63.2	63.2	63.2	84	58.3	0	2	68	0.00	30.117 

CoCoRaHS
IN-AL-39
A2 Web Hosting
Creative Commons License
GoDaddy
search engine by freefind advanced

loaded 2018-11-17 14:40:55 • last modified 2010-11-18 10:43:29
Privacy PolicyDisclaimer
• wx.awcolley.com is powered by PmWiki v.2002016 •
• all content (unless otherwise noted) © 2018 A W Colley